Terminal Aerodrome Forecast
Issued by NWS

Current Version | Previous Version | Text Only | Print | Product List | Glossary Off
Versions: 1 2 3 4 5 6 7 8 9 10 11 12 13 14 15 16 17 18

000
FTUS41 KILN 302300 RRA
TAFLUK
TAF
KLUK 302344Z 3100/3124 00000KT P6SM VCTS BKN050CB
     FM310200 00000KT P6SM SCT100
     FM310800 00000KT 2SM BR SCT001 SCT050
      TEMPO 3110/3113 1/4SM FG VV001
     FM311300 00000KT 4SM BR FEW050
     FM311500 23006KT P6SM SCT040
     FM312300 21004KT P6SM SKC=

USA.gov is the U.S. government's official web portal to all federal, state and local government web resources and services.